Time;durP1;ratioP1;P1;durP2;ratioP2;P2;SDS_P1;SDS_P2;PMS_P1;PMS_P2;Temp;Humidity;BMP_temperature;BMP_pressure;BME280_temperature;BME280_humidity;BME280_pressure;Samples;Min_cycle;Max_cycle;Signal;HPM_P1;HPM_P2
2021/08/24 00:00:06;;;;;;;7.95;5.13;;;;;;;15.01;100.00;95368.44;5012176;28;20034;-53
2021/08/24 00:02:32;;;;;;;7.07;4.68;;;;;;;15.01;100.00;95370.34;5015171;28;20049;-54
2021/08/24 00:04:57;;;;;;;6.85;4.70;;;;;;;14.99;100.00;95370.63;5013994;28;20028;-51
2021/08/24 00:07:22;;;;;;;8.10;4.85;;;;;;;15.01;100.00;95365.75;5012412;28;20037;-54
2021/08/24 00:09:48;;;;;;;5.50;4.45;;;;;;;15.00;100.00;95363.34;5013335;28;20033;-54
2021/08/24 00:12:17;;;;;;;6.75;4.53;;;;;;;15.00;100.00;95366.84;5012010;28;20497;-53
2021/08/24 00:14:45;;;;;;;7.82;5.07;;;;;;;15.01;100.00;95367.66;5013289;28;20400;-53
2021/08/24 00:17:21;;;;;;;5.97;4.57;;;;;;;15.01;100.00;95360.34;5013222;28;20034;-51
2021/08/24 00:19:47;;;;;;;7.95;4.70;;;;;;;15.00;100.00;95363.34;5020559;28;20038;-54
2021/08/24 00:22:18;;;;;;;5.63;4.43;;;;;;;14.98;100.00;95365.53;5032855;28;20040;-52
2021/08/24 00:24:44;;;;;;;4.43;4.03;;;;;;;14.97;100.00;95371.97;5032737;28;20477;-49
2021/08/24 00:27:23;;;;;;;5.38;4.30;;;;;;;14.97;100.00;95371.97;5031620;28;20030;-49
2021/08/24 00:29:48;;;;;;;5.03;4.05;;;;;;;14.98;100.00;95384.41;5022774;28;20388;-54
2021/08/24 00:32:22;;;;;;;5.93;3.90;;;;;;;14.98;100.00;95373.63;5012903;28;20030;-54
2021/08/24 00:34:50;;;;;;;4.95;4.22;;;;;;;14.97;100.00;95370.09;5012946;28;20045;-53
2021/08/24 00:37:15;;;;;;;8.20;3.88;;;;;;;14.94;100.00;95361.78;5012686;28;20022;-56
2021/08/24 00:39:41;;;;;;;4.50;3.95;;;;;;;14.95;100.00;95366.06;5011614;28;20420;-50
2021/08/24 00:42:17;;;;;;;5.57;4.38;;;;;;;14.96;100.00;95368.50;5011916;28;20029;-55
2021/08/24 00:44:44;;;;;;;5.68;4.07;;;;;;;14.95;100.00;95366.06;5011359;28;20022;-57
2021/08/24 00:47:16;;;;;;;6.18;4.13;;;;;;;14.96;100.00;95365.00;5012639;28;20413;-52
2021/08/24 00:49:44;;;;;;;5.20;3.60;;;;;;;14.96;100.00;95365.00;5012574;28;20017;-53
2021/08/24 00:52:16;;;;;;;4.43;3.75;;;;;;;14.96;100.00;95360.41;5012591;28;20022;-57
2021/08/24 00:54:43;;;;;;;6.60;3.83;;;;;;;14.97;100.00;95370.09;5012493;28;20054;-57
2021/08/24 00:57:20;;;;;;;6.72;4.15;;;;;;;14.94;100.00;95354.50;5030004;28;20380;-56
2021/08/24 00:59:46;;;;;;;3.70;3.30;;;;;;;14.94;100.00;95354.50;5013613;28;20030;-56
2021/08/24 01:02:15;;;;;;;4.10;3.30;;;;;;;14.91;100.00;95352.38;5012387;28;20420;-57
2021/08/24 01:04:51;;;;;;;3.33;3.03;;;;;;;14.91;100.00;95343.47;5012352;28;20061;-57
2021/08/24 01:07:47;;;;;;;4.07;2.65;;;;;;;14.87;100.00;95342.41;5011120;28;20025;-58
2021/08/24 01:10:23;;;;;;;3.08;2.78;;;;;;;14.88;100.00;95331.38;5012430;28;20022;-57
2021/08/24 01:13:07;;;;;;;3.90;3.20;;;;;;;14.89;100.00;95332.97;5012232;28;20033;-52
2021/08/24 01:15:33;;;;;;;3.40;2.90;;;;;;;14.88;100.00;95330.56;5012234;28;20032;-52
2021/08/24 01:18:28;;;;;;;4.88;3.40;;;;;;;14.82;100.00;95334.41;5012201;28;20021;-57
2021/08/24 01:21:18;;;;;;;4.68;3.47;;;;;;;14.77;100.00;95333.38;5016229;28;20109;-52
2021/08/24 01:24:10;;;;;;;4.10;3.42;;;;;;;14.73;100.00;95345.78;5016423;28;20033;-54
2021/08/24 01:26:48;;;;;;;4.03;3.50;;;;;;;14.72;100.00;95338.78;5015334;28;20030;-57
2021/08/24 01:29:50;;;;;;;4.50;3.33;;;;;;;14.68;100.00;95345.06;5021685;28;20041;-55
2021/08/24 01:32:50;;;;;;;3.78;3.38;;;;;;;14.66;100.00;95339.16;5035954;28;20100;-56
2021/08/24 01:35:31;;;;;;;4.53;3.40;;;;;;;14.64;100.00;95342.09;5035950;28;20059;-57
2021/08/24 01:38:20;;;;;;;4.97;3.25;;;;;;;14.62;100.00;95344.28;5035906;28;20025;-57
2021/08/24 01:41:08;;;;;;;3.75;3.00;;;;;;;14.59;100.00;95342.16;5035777;28;20467;-56
2021/08/24 01:44:06;;;;;;;3.45;3.10;;;;;;;14.52;100.00;95336.28;5035567;28;20512;-53
2021/08/24 01:46:57;;;;;;;4.28;3.15;;;;;;;14.44;100.00;95334.19;5034367;28;20033;-50
2021/08/24 01:49:38;;;;;;;4.47;3.28;;;;;;;14.41;100.00;95334.72;5035599;28;20029;-51
2021/08/24 01:52:08;;;;;;;3.42;2.85;;;;;;;14.40;100.00;95339.31;5035560;28;20026;-52
2021/08/24 01:54:51;;;;;;;3.35;3.05;;;;;;;14.37;100.00;95342.59;5017419;28;20440;-50
2021/08/24 01:57:32;;;;;;;5.13;3.15;;;;;;;14.31;100.00;95334.81;5035483;28;20033;-53
2021/08/24 02:00:26;;;;;;;3.22;2.75;;;;;;;14.21;100.00;95328.41;5028101;28;20077;-56
2021/08/24 02:03:00;;;;;;;5.30;2.67;;;;;;;14.13;100.00;95323.66;5014961;28;20045;-57
2021/08/24 02:05:49;;;;;;;3.47;2.63;;;;;;;14.11;100.00;95325.00;5015678;28;20028;-57
2021/08/24 02:08:24;;;;;;;3.22;2.50;;;;;;;14.02;100.00;95307.84;5023512;28;20029;-56
2021/08/24 02:10:58;;;;;;;3.88;2.42;;;;;;;13.95;100.00;95301.97;5033716;28;20033;-56
2021/08/24 02:13:31;;;;;;;2.55;1.95;;;;;;;13.88;100.00;95308.44;5035249;28;20029;-57
2021/08/24 02:16:07;;;;;;;;;;;;;;;13.80;100.00;95298.31;5035728;28;20033;-57
2021/08/24 02:18:37;;;;;;;2.40;1.63;;;;;;;13.80;100.00;95289.44;5034962;28;19909;-56
2021/08/24 02:21:12;;;;;;;1.63;1.50;;;;;;;13.77;100.00;95287.28;5035078;28;20112;-57
2021/08/24 02:23:42;;;;;;;2.53;1.83;;;;;;;13.75;100.00;95271.41;5034882;28;20377;-57
2021/08/24 02:26:19;;;;;;;1.83;1.70;;;;;;;13.68;100.00;95273.63;5033707;28;20032;-49
2021/08/24 02:28:54;;;;;;;3.00;1.67;;;;;;;13.60;100.00;95268.81;5033686;28;20033;-53
2021/08/24 02:31:59;;;;;;;3.95;1.55;;;;;;;13.55;100.00;95258.06;5033709;28;20079;-50
2021/08/24 02:34:46;;;;;;;2.05;1.40;;;;;;;13.48;100.00;95250.31;5034667;28;20021;-57
2021/08/24 02:37:28;;;;;;;2.03;1.42;;;;;;;13.37;100.00;95245.28;5034884;28;20061;-54
2021/08/24 02:40:17;;;;;;;1.98;1.40;;;;;;;13.28;100.00;95258.50;5034564;28;20057;-52
2021/08/24 02:42:58;;;;;;;2.70;1.75;;;;;;;13.23;100.00;95253.16;5034663;28;20484;-56
2021/08/24 02:45:32;;;;;;;1.80;1.30;;;;;;;13.19;100.00;95268.25;5034676;28;20033;-53
2021/08/24 02:48:00;;;;;;;2.10;1.33;;;;;;;13.12;100.00;95260.44;5034512;28;20033;-57
2021/08/24 02:50:26;;;;;;;4.30;1.23;;;;;;;13.06;100.00;95272.31;5034370;28;20025;-53
2021/08/24 02:53:09;;;;;;;1.70;1.33;;;;;;;12.99;100.00;95282.53;5033779;28;20032;-55
2021/08/24 02:55:40;;;;;;;1.45;1.15;;;;;;;12.92;100.00;95285.53;5032827;28;20025;-56
2021/08/24 02:58:08;;;;;;;2.05;1.40;;;;;;;12.87;100.00;95290.09;5028668;28;20029;-56
2021/08/24 03:00:33;;;;;;;4.43;1.52;;;;;;;12.83;100.00;95295.25;5013430;28;20033;-55
2021/08/24 03:03:03;;;;;;;1.80;1.20;;;;;;;12.76;100.00;95297.41;5014162;28;20088;-56
2021/08/24 03:05:48;;;;;;;1.88;1.30;;;;;;;12.74;100.00;95307.63;5014470;28;20022;-56
2021/08/24 03:08:14;;;;;;;2.08;1.30;;;;;;;12.69;100.00;95311.13;5022471;28;20032;-52
2021/08/24 03:10:43;;;;;;;3.20;1.38;;;;;;;12.63;100.00;95330.22;5033847;28;20026;-51
2021/08/24 03:13:30;;;;;;;3.45;1.30;;;;;;;12.54;100.00;95335.34;5034017;28;20032;-58
2021/08/24 03:16:14;;;;;;;2.72;1.33;;;;;;;12.48;100.00;95344.47;5032867;28;20041;-54
2021/08/24 03:18:48;;;;;;;1.60;1.20;;;;;;;12.43;100.00;95345.28;5033824;28;20026;-58
2021/08/24 03:21:18;;;;;;;4.60;1.50;;;;;;;12.41;100.00;95352.00;5032616;28;20548;-57
2021/08/24 03:23:46;;;;;;;1.90;1.40;;;;;;;12.37;100.00;95358.97;5033777;28;20025;-55
2021/08/24 03:26:15;;;;;;;2.88;1.52;;;;;;;12.35;100.00;95359.25;5032678;28;20032;-55
2021/08/24 03:28:43;;;;;;;1.52;1.33;;;;;;;12.34;100.00;95364.91;5033772;28;20516;-56
2021/08/24 03:31:15;;;;;;;1.50;1.13;;;;;;;12.31;100.00;95373.50;5033779;28;20040;-53
2021/08/24 03:33:43;;;;;;;2.28;1.70;;;;;;;12.30;100.00;95370.00;5033533;28;20083;-55
2021/08/24 03:36:08;;;;;;;1.42;1.20;;;;;;;12.26;100.00;95368.09;5033723;28;20111;-53
2021/08/24 03:38:40;;;;;;;1.52;1.38;;;;;;;12.22;100.00;95370.53;5033496;28;20496;-56
2021/08/24 03:41:08;;;;;;;2.80;1.80;;;;;;;12.17;100.00;95376.72;5033416;28;20041;-50
2021/08/24 03:43:34;;;;;;;2.33;1.45;;;;;;;12.13;100.00;95386.38;5033220;28;20095;-53
2021/08/24 03:46:07;;;;;;;2.50;1.55;;;;;;;12.09;100.00;95385.28;5032053;28;20384;-50
2021/08/24 03:48:40;;;;;;;1.77;1.42;;;;;;;12.05;100.00;95394.16;5033758;28;20048;-52
2021/08/24 03:51:06;;;;;;;2.97;1.73;;;;;;;11.99;100.00;95392.53;5033222;28;20427;-52
2021/08/24 03:53:35;;;;;;;1.95;1.75;;;;;;;11.95;100.00;95407.56;5032782;28;20048;-49
2021/08/24 03:56:05;;;;;;;2.75;1.58;;;;;;;11.85;100.00;95406.47;5031958;28;20121;-49
2021/08/24 03:58:36;;;;;;;5.82;1.75;;;;;;;11.76;100.00;95421.44;5023545;28;20026;-51
2021/08/24 04:01:05;;;;;;;4.22;1.70;;;;;;;11.67;100.00;95425.69;5013910;28;20500;-49
2021/08/24 04:03:30;;;;;;;2.85;1.75;;;;;;;11.64;100.00;95430.78;5013148;28;20025;-54
2021/08/24 04:06:03;;;;;;;2.15;1.73;;;;;;;11.59;100.00;95444.97;5013369;28;20404;-51
2021/08/24 04:08:28;;;;;;;;;;;;;;;11.57;100.00;95455.16;5013128;28;20056;-49
2021/08/24 04:10:56;;;;;;;2.05;1.85;;;;;;;11.52;100.00;95464.00;5013256;28;20004;-54
2021/08/24 04:13:28;;;;;;;2.88;1.77;;;;;;;11.49;100.00;95482.47;5013148;28;20026;-56
2021/08/24 04:15:53;;;;;;;3.05;1.80;;;;;;;11.47;100.00;95488.09;5019761;28;20156;-57
2021/08/24 04:18:19;;;;;;;2.20;1.80;;;;;;;11.50;100.00;95492.94;5032001;28;20044;-56
2021/08/24 04:20:47;;;;;;;1.70;1.60;;;;;;;11.52;100.00;95498.88;5026785;28;20021;-55
2021/08/24 04:23:19;;;;;;;2.55;1.65;;;;;;;11.59;100.00;95499.44;5012337;28;20022;-54
2021/08/24 04:25:44;;;;;;;2.65;1.77;;;;;;;11.67;100.00;95506.19;5011901;28;20034;-56
2021/08/24 04:28:10;;;;;;;2.78;1.90;;;;;;;11.75;100.00;95499.53;5011046;28;20084;-55
2021/08/24 04:30:53;;;;;;;2.50;1.88;;;;;;;11.77;100.00;95492.00;5011927;28;20033;-57
2021/08/24 04:33:22;;;;;;;;;;;;;;;11.80;100.00;95494.19;5022010;28;20398;-56
2021/08/24 04:35:49;;;;;;;3.03;1.92;;;;;;;11.81;100.00;95493.13;5011894;28;19963;-55
2021/08/24 04:38:18;;;;;;;3.72;2.00;;;;;;;11.83;100.00;95494.50;5012225;28;20030;-52
2021/08/24 04:40:47;;;;;;;4.07;2.38;;;;;;;11.86;100.00;95495.84;5011045;28;20521;-54
2021/08/24 04:43:16;;;;;;;3.45;1.98;;;;;;;11.88;100.00;95491.00;5011814;28;20029;-56
2021/08/24 04:45:45;;;;;;;5.18;2.20;;;;;;;11.87;100.00;95492.09;5011526;28;20037;-57
2021/08/24 04:48:17;;;;;;;2.58;2.10;;;;;;;11.87;100.00;95489.41;5010650;28;20025;-56
2021/08/24 04:50:45;;;;;;;2.60;2.00;;;;;;;11.85;100.00;95483.50;5015810;28;20496;-56
2021/08/24 04:53:13;;;;;;;2.72;2.05;;;;;;;11.84;100.00;95482.69;5009775;28;20050;-56
2021/08/24 04:55:44;;;;;;;2.20;1.73;;;;;;;11.86;100.00;95482.41;5022454;28;20029;-57
2021/08/24 04:58:17;;;;;;;2.63;1.70;;;;;;;11.86;100.00;95485.09;5032098;28;20025;-56
2021/08/24 05:00:54;;;;;;;;;;;;;;;11.87;100.00;95486.72;5023376;28;20022;-52
2021/08/24 05:03:23;;;;;;;3.10;2.10;;;;;;;11.87;100.00;95484.84;5013033;28;19947;-56
2021/08/24 05:05:49;;;;;;;2.88;2.00;;;;;;;11.90;100.00;95488.88;5012427;28;20025;-57
2021/08/24 05:08:15;;;;;;;2.95;1.80;;;;;;;11.89;100.00;95490.75;5012261;28;20030;-56
2021/08/24 05:10:43;;;;;;;2.63;2.10;;;;;;;11.91;100.00;95485.09;5012471;28;20412;-54
2021/08/24 05:13:08;;;;;;;2.13;1.75;;;;;;;11.91;100.00;95482.41;5023119;28;20021;-56
2021/08/24 05:15:37;;;;;;;2.03;1.58;;;;;;;11.91;100.00;95477.06;5012269;28;20397;-56
2021/08/24 05:18:02;;;;;;;4.93;2.13;;;;;;;11.93;100.00;95463.38;5012288;28;20386;-54
2021/08/24 05:20:30;;;;;;;6.40;2.35;;;;;;;11.93;100.00;95472.22;5012170;28;20026;-53
2021/08/24 05:22:57;;;;;;;3.08;1.80;;;;;;;11.95;100.00;95461.25;5010919;28;20036;-51
2021/08/24 05:25:23;;;;;;;3.08;2.10;;;;;;;11.94;100.00;95468.50;5012258;28;20022;-56
2021/08/24 05:27:53;;;;;;;4.53;2.22;;;;;;;11.97;100.00;95454.53;5012204;28;20033;-55
2021/08/24 05:30:22;;;;;;;3.28;2.10;;;;;;;11.98;100.00;95458.03;5016110;28;20385;-56
2021/08/24 05:32:54;;;;;;;2.63;1.90;;;;;;;11.98;100.00;95461.53;5012129;28;20026;-54
2021/08/24 05:35:40;;;;;;;4.70;2.45;;;;;;;11.99;100.00;95463.13;5010869;28;20030;-56
2021/08/24 05:38:06;;;;;;;2.78;1.90;;;;;;;11.99;100.00;95452.38;5012243;28;20444;-56
2021/08/24 05:40:31;;;;;;;2.42;1.90;;;;;;;11.99;100.00;95452.38;5011913;28;20037;-56
2021/08/24 05:42:59;;;;;;;3.30;2.30;;;;;;;11.99;100.00;95456.94;5011928;28;20052;-54
2021/08/24 05:45:32;;;;;;;3.15;2.22;;;;;;;12.00;100.00;95458.56;5012053;28;20064;-57
2021/08/24 05:47:57;;;;;;;4.00;2.20;;;;;;;11.98;100.00;95463.41;5012162;28;20465;-54
2021/08/24 05:50:26;;;;;;;2.58;1.85;;;;;;;12.02;100.00;95457.22;5011960;28;20029;-55
2021/08/24 05:52:54;;;;;;;4.72;2.30;;;;;;;12.05;100.00;95451.34;5011860;28;20104;-54
2021/08/24 05:55:25;;;;;;;2.72;2.08;;;;;;;12.09;100.00;95462.34;5016877;28;20105;-54
2021/08/24 05:57:52;;;;;;;3.13;2.13;;;;;;;12.08;100.00;95455.38;5030290;28;20026;-56
2021/08/24 06:00:17;;;;;;;3.28;2.22;;;;;;;12.08;100.00;95455.38;5030141;28;20507;-52
2021/08/24 06:02:46;;;;;;;6.25;2.15;;;;;;;12.06;100.00;95458.31;5030144;28;20064;-52
2021/08/24 06:05:17;;;;;;;3.22;2.20;;;;;;;12.04;100.00;95454.28;5012202;28;20068;-53
2021/08/24 06:07:47;;;;;;;2.80;2.20;;;;;;;12.04;100.00;95448.91;4998183;28;20017;-53
2021/08/24 06:10:13;;;;;;;3.05;2.25;;;;;;;12.03;100.00;95453.47;5015485;28;20022;-57
2021/08/24 06:12:38;;;;;;;2.22;2.00;;;;;;;12.08;100.00;95450.81;5015052;28;20022;-52
2021/08/24 06:15:34;;;;;;;4.18;2.10;;;;;;;12.11;100.00;95444.91;5014347;28;20400;-54
2021/08/24 06:18:03;;;;;;;3.00;2.25;;;;;;;12.09;100.00;95443.56;5014226;28;20485;-53
2021/08/24 06:20:33;;;;;;;3.53;1.75;;;;;;;12.17;100.00;95448.41;5001115;28;20034;-58
2021/08/24 06:22:58;;;;;;;4.15;1.85;;;;;;;12.15;100.00;95437.91;5029407;28;20038;-59
2021/08/24 06:25:24;;;;;;;2.83;2.03;;;;;;;12.14;100.00;95440.88;5015328;28;20527;-54
2021/08/24 06:27:53;;;;;;;4.25;2.40;;;;;;;12.15;100.00;95426.38;5015254;28;20504;-57
2021/08/24 06:30:19;;;;;;;2.20;2.00;;;;;;;12.16;100.00;95434.19;5027108;28;20028;-55
2021/08/24 06:32:52;;;;;;;3.42;2.30;;;;;;;12.17;100.00;95446.53;5028433;28;20513;-58
2021/08/24 06:35:19;;;;;;;2.90;2.17;;;;;;;12.21;100.00;95438.75;5015087;28;20040;-53
2021/08/24 06:37:44;;;;;;;2.55;2.00;;;;;;;12.25;100.00;95441.69;5015391;28;20469;-53
2021/08/24 06:40:13;;;;;;;2.60;2.20;;;;;;;12.25;100.00;95445.19;5015022;28;20301;-53
2021/08/24 06:42:48;;;;;;;3.38;2.13;;;;;;;12.30;100.00;95441.72;5014874;28;20018;-52
2021/08/24 06:45:23;;;;;;;4.28;2.13;;;;;;;12.27;100.00;95442.25;5014816;28;20025;-54
2021/08/24 06:47:52;;;;;;;2.67;2.28;;;;;;;12.26;100.00;95436.06;5013716;28;20481;-53
2021/08/24 06:50:18;;;;;;;3.95;2.38;;;;;;;12.25;100.00;95447.06;5013553;28;20030;-55
2021/08/24 06:52:46;;;;;;;2.78;2.47;;;;;;;12.21;100.00;95444.13;5013398;28;20025;-57
2021/08/24 06:55:16;;;;;;;2.20;1.92;;;;;;;12.21;100.00;95436.06;5015096;28;20041;-56
2021/08/24 06:57:48;;;;;;;4.05;2.35;;;;;;;12.17;100.00;95435.78;5026838;28;20548;-55
2021/08/24 07:00:17;;;;;;;2.03;1.83;;;;;;;12.18;100.00;95434.72;5012727;28;20036;-57
2021/08/24 07:02:53;;;;;;;2.83;1.92;;;;;;;12.20;100.00;95429.06;5014706;28;20026;-57
2021/08/24 07:05:20;;;;;;;2.63;2.10;;;;;;;12.21;100.00;95429.88;5017387;28;20022;-57
2021/08/24 07:07:45;;;;;;;2.53;2.00;;;;;;;12.24;100.00;95432.03;4996902;28;20021;-57
2021/08/24 07:10:25;;;;;;;4.05;2.08;;;;;;;12.21;100.00;95432.56;5014265;28;20029;-55
2021/08/24 07:12:50;;;;;;;2.35;1.70;;;;;;;12.28;100.00;95433.13;5012912;28;20393;-55
2021/08/24 07:15:21;;;;;;;2.97;2.05;;;;;;;12.31;100.00;95424.53;4996832;28;20030;-57
2021/08/24 07:17:51;;;;;;;2.97;2.00;;;;;;;12.34;100.00;95426.66;5013705;28;20025;-55
2021/08/24 07:20:24;;;;;;;2.83;2.10;;;;;;;12.33;100.00;95428.56;5013007;28;20424;-53
2021/08/24 07:22:52;;;;;;;5.43;2.17;;;;;;;12.33;100.00;95415.13;5013959;28;20034;-54
2021/08/24 07:25:21;;;;;;;3.47;1.90;;;;;;;12.41;100.00;95419.97;5014165;28;20540;-51
2021/08/24 07:27:48;;;;;;;4.18;2.00;;;;;;;12.46;100.00;95424.53;5013858;28;20041;-49
2021/08/24 07:30:15;;;;;;;2.47;1.70;;;;;;;12.50;100.00;95419.44;5012820;28;20505;-52
2021/08/24 07:32:44;;;;;;;2.58;1.77;;;;;;;12.48;100.00;95407.09;5012600;28;20032;-51
2021/08/24 07:35:19;;;;;;;2.28;1.67;;;;;;;12.48;100.00;95403.56;5013896;28;20041;-51
2021/08/24 07:37:45;;;;;;;3.38;1.92;;;;;;;12.52;100.00;95409.22;5013631;28;20030;-51
2021/08/24 07:40:11;;;;;;;1.90;1.30;;;;;;;12.55;100.00;95408.69;5012357;28;20022;-53
2021/08/24 07:42:37;;;;;;;3.60;1.90;;;;;;;12.58;100.00;95397.38;5012388;28;20080;-50
2021/08/24 07:45:03;;;;;;;2.95;1.77;;;;;;;12.63;100.00;95408.97;5013817;28;20026;-51
2021/08/24 07:47:31;;;;;;;2.85;1.85;;;;;;;12.63;100.00;95408.97;5012592;28;20021;-52
2021/08/24 07:49:59;;;;;;;2.78;1.83;;;;;;;12.68;100.00;95411.63;5013636;28;20026;-53
2021/08/24 07:52:24;;;;;;;3.17;1.83;;;;;;;12.69;100.00;95399.81;5013629;28;20101;-54
2021/08/24 07:54:50;;;;;;;3.22;1.67;;;;;;;12.77;100.00;95401.16;5013198;28;20137;-51
2021/08/24 07:57:15;;;;;;;3.20;2.10;;;;;;;12.76;100.00;95389.59;5026802;28;20031;-55
2021/08/24 07:59:41;;;;;;;2.75;2.03;;;;;;;12.83;100.00;95385.84;5012907;28;20026;-54
2021/08/24 08:02:12;;;;;;;3.50;2.50;;;;;;;12.88;100.00;95388.50;5013460;28;20080;-56
2021/08/24 08:04:40;;;;;;;10.90;2.58;;;;;;;12.86;100.00;95377.22;5019840;28;20045;-57
2021/08/24 08:07:08;;;;;;;3.60;2.40;;;;;;;12.85;100.00;95386.38;5026474;28;20080;-56
2021/08/24 08:09:33;;;;;;;3.50;2.15;;;;;;;12.82;100.00;95384.22;5013252;28;20046;-54
2021/08/24 08:11:59;;;;;;;2.97;2.33;;;;;;;12.77;100.00;95393.09;5011933;28;20034;-52
2021/08/24 08:14:24;;;;;;;3.92;2.35;;;;;;;12.77;100.00;95399.25;5011954;28;20037;-54
2021/08/24 08:16:50;;;;;;;4.03;2.22;;;;;;;12.80;100.00;95392.53;5013183;28;20061;-56
2021/08/24 08:19:15;;;;;;;4.43;2.10;;;;;;;12.82;100.00;95400.34;5011922;28;20095;-57
2021/08/24 08:21:41;;;;;;;3.30;2.13;;;;;;;12.84;100.00;95395.50;5012964;28;20034;-50
2021/08/24 08:24:08;;;;;;;5.80;2.20;;;;;;;12.90;100.00;95395.22;5012957;28;20030;-53
2021/08/24 08:26:35;;;;;;;5.72;2.50;;;;;;;12.93;100.00;95400.06;5013189;28;20026;-54
2021/08/24 08:29:05;;;;;;;2.80;2.40;;;;;;;12.99;100.00;95395.47;5011019;28;20030;-54
2021/08/24 08:31:34;;;;;;;4.68;2.70;;;;;;;12.96;100.00;95387.94;5013151;28;20033;-57
2021/08/24 08:34:00;;;;;;;4.05;2.75;;;;;;;13.01;100.00;95390.63;5012942;28;20049;-54
2021/08/24 08:36:28;;;;;;;5.45;2.70;;;;;;;12.98;100.00;95391.16;5012783;28;20140;-56
2021/08/24 08:38:54;;;;;;;5.05;2.88;;;;;;;13.03;100.00;95389.28;5011283;28;20496;-57
2021/08/24 08:41:33;;;;;;;3.28;2.35;;;;;;;13.15;100.00;95385.50;5012634;28;20026;-56
2021/08/24 08:44:46;;;;;;;2.92;2.28;;;;;;;13.25;100.00;95388.19;5010055;28;20462;-58
2021/08/24 08:47:33;;;;;;;3.03;2.30;;;;;;;13.31;100.00;95381.69;5008208;28;20034;-56
2021/08/24 08:50:10;;;;;;;2.78;2.10;;;;;;;13.27;100.00;95362.63;5014515;28;20026;-56
2021/08/24 08:53:04;;;;;;;4.25;2.00;;;;;;;13.31;100.00;95360.97;5017497;28;20420;-57
2021/08/24 08:55:56;;;;;;;4.15;2.90;;;;;;;13.31;100.00;95362.88;5018613;28;20481;-55
2021/08/24 08:58:31;;;;;;;4.47;2.30;;;;;;;13.28;100.00;95358.03;4977443;28;20065;-57
2021/08/24 09:01:22;;;;;;;3.58;2.63;;;;;;;13.45;100.00;95363.88;5025488;28;20057;-53
2021/08/24 09:04:02;;;;;;;3.50;2.30;;;;;;;13.55;100.00;95354.97;5013463;28;20042;-57
2021/08/24 09:06:27;;;;;;;5.80;2.50;;;;;;;13.58;100.00;95349.03;5012269;28;20104;-56
2021/08/24 09:08:58;;;;;;;2.85;2.00;;;;;;;13.64;100.00;95339.84;5014184;28;20018;-59
2021/08/24 09:11:31;;;;;;;2.53;2.00;;;;;;;13.79;100.00;95341.66;5012478;28;20037;-56
2021/08/24 09:14:04;;;;;;;5.05;2.47;;;;;;;13.81;100.00;95339.50;5016446;28;20084;-55
2021/08/24 09:16:37;;;;;;;7.88;2.45;;;;;;;13.76;100.00;95323.34;5013293;28;20489;-57
2021/08/24 09:19:05;;;;;;;3.42;2.47;;;;;;;13.97;100.00;95318.63;5027738;28;20400;-57
2021/08/24 09:21:40;;;;;;;3.55;2.30;;;;;;;14.09;100.00;95311.81;5031415;28;20108;-57
2021/08/24 09:24:22;;;;;;;4.03;2.65;;;;;;;13.98;100.00;95309.47;5030835;28;20231;-54
2021/08/24 09:27:09;;;;;;;3.72;2.42;;;;;;;14.03;100.00;95317.53;5020160;28;20032;-57
2021/08/24 09:29:40;;;;;;;3.70;2.40;;;;;;;14.07;100.00;95308.59;5020703;28;20446;-52
2021/08/24 09:32:10;;;;;;;4.20;2.50;;;;;;;14.07;100.00;95307.78;5030762;28;20116;-51
2021/08/24 09:34:40;;;;;;;4.22;2.58;;;;;;;14.01;100.00;95306.25;5031938;28;20053;-55
2021/08/24 09:37:12;;;;;;;5.32;2.88;;;;;;;14.03;100.00;95312.16;5032034;28;20025;-56
2021/08/24 09:39:55;;;;;;;4.20;2.60;;;;;;;13.90;100.00;95319.78;5032647;28;20033;-56
2021/08/24 09:42:33;;;;;;;5.25;2.90;;;;;;;13.69;100.00;95323.69;5035986;28;20451;-54
2021/08/24 09:45:08;;;;;;;5.60;3.00;;;;;;;13.69;100.00;95315.59;5034470;28;20040;-57
2021/08/24 09:47:36;;;;;;;4.47;3.17;;;;;;;13.67;100.00;95325.00;5035722;28;20036;-56
2021/08/24 09:50:14;;;;;;;4.45;3.10;;;;;;;13.76;100.00;95334.91;5035734;28;20560;-56
2021/08/24 09:52:47;;;;;;;3.33;2.63;;;;;;;13.77;100.00;95324.97;5035710;28;20103;-54
2021/08/24 09:55:20;;;;;;;7.20;2.90;;;;;;;13.86;100.00;95324.09;5035646;28;20033;-51
2021/08/24 09:58:00;;;;;;;4.55;2.70;;;;;;;13.91;100.00;95334.84;5035483;28;20041;-52
2021/08/24 10:00:36;;;;;;;4.50;2.50;;;;;;;13.97;100.00;95324.03;5016922;28;20030;-57
2021/08/24 10:03:28;;;;;;;4.70;3.17;;;;;;;14.03;100.00;95321.03;5015903;28;20040;-56
2021/08/24 10:06:05;;;;;;;3.90;2.95;;;;;;;14.10;100.00;95323.38;5025376;28;20443;-57
2021/08/24 10:08:34;;;;;;;4.43;2.55;;;;;;;14.23;100.00;95319.28;5015652;28;20034;-51
2021/08/24 10:11:04;;;;;;;5.68;2.40;;;;;;;14.27;100.00;95318.41;5015610;28;20026;-55
2021/08/24 10:13:36;;;;;;;3.63;2.70;;;;;;;14.32;100.00;95314.84;5015287;28;20108;-51
2021/08/24 10:16:13;;;;;;;7.00;2.90;;;;;;;14.39;100.00;95308.06;5015551;28;20025;-51
2021/08/24 10:18:42;;;;;;;5.90;2.97;;;;;;;14.45;100.00;95304.28;5023572;28;20124;-56
2021/08/24 10:21:26;;;;;;;4.53;2.80;;;;;;;14.63;100.00;95304.66;5033693;28;20022;-57
2021/08/24 10:23:59;;;;;;;4.32;2.45;;;;;;;14.60;100.00;95294.44;5030482;28;20018;-56
2021/08/24 10:26:33;;;;;;;8.10;2.80;;;;;;;14.49;100.00;95293.72;5026521;28;20037;-54
2021/08/24 10:29:09;;;;;;;4.03;2.90;;;;;;;14.47;100.00;95296.72;5013734;28;20041;-56
2021/08/24 10:31:51;;;;;;;5.72;2.55;;;;;;;14.41;100.00;95305.09;5021386;28;20485;-57
2021/08/24 10:34:40;;;;;;;6.07;2.58;;;;;;;14.40;100.00;95301.59;5018367;28;20034;-57
2021/08/24 10:37:24;;;;;;;3.83;2.58;;;;;;;14.44;100.00;95304.53;5015161;28;20444;-51
2021/08/24 10:39:55;;;;;;;3.63;2.63;;;;;;;14.42;100.00;95304.00;5023590;28;20029;-55
2021/08/24 10:42:23;;;;;;;2.92;2.25;;;;;;;14.54;100.00;95300.94;5031840;28;20026;-53
2021/08/24 10:45:01;;;;;;;3.42;2.33;;;;;;;14.50;100.00;95306.91;5014819;28;20046;-49
2021/08/24 10:47:39;;;;;;;4.53;2.80;;;;;;;14.50;100.00;95306.91;5014888;28;20029;-53
2021/08/24 10:50:08;;;;;;;4.53;2.88;;;;;;;14.46;100.00;95308.59;5014873;28;20048;-52
2021/08/24 10:53:02;;;;;;;4.18;2.58;;;;;;;14.49;100.00;95304.50;5020738;28;20087;-55
2021/08/24 10:55:33;;;;;;;4.55;2.53;;;;;;;14.49;100.00;95309.91;5034835;28;20092;-50
2021/08/24 10:58:06;;;;;;;4.90;2.40;;;;;;;14.61;100.00;95309.53;5034357;28;20091;-51
2021/08/24 11:01:09;;;;;;;5.63;2.90;;;;;;;14.70;100.00;95302.44;5019611;28;20386;-56
2021/08/24 11:04:25;;;;;;;5.60;2.60;;;;;;;14.75;100.00;95297.78;5015215;28;20021;-58
2021/08/24 11:07:15;;;;;;;6.20;2.85;;;;;;;14.89;100.00;95306.00;4978888;28;20155;-54
2021/08/24 11:10:09;;;;;;;3.85;2.75;;;;;;;14.93;100.00;95304.34;5020791;28;20076;-56
2021/08/24 11:13:22;;;;;;;3.80;2.20;;;;;;;15.06;100.00;95311.72;5027005;28;20507;-56
2021/08/24 11:16:24;;;;;;;5.53;2.80;;;;;;;15.23;100.00;95313.97;5008444;28;20049;-53
2021/08/24 11:19:02;;;;;;;5.70;2.95;;;;;;;15.21;100.00;95318.88;5014033;28;20018;-57
2021/08/24 11:22:09;;;;;;;5.18;2.70;;;;;;;15.25;100.00;95311.00;5014302;28;20060;-55
2021/08/24 11:24:57;;;;;;;4.55;2.70;;;;;;;15.41;100.00;95306.19;5024188;28;20017;-55
2021/08/24 11:27:44;;;;;;;3.72;2.20;;;;;;;15.67;100.00;95321.00;5033792;28;20480;-55
2021/08/24 11:30:58;;;;;;;3.40;2.53;;;;;;;15.82;100.00;95319.97;5033559;28;20029;-53
2021/08/24 11:33:30;;;;;;;5.65;3.53;;;;;;;15.55;100.00;95339.50;5032501;28;20216;-56
2021/08/24 11:36:18;;;;;;;6.82;2.65;;;;;;;15.65;100.00;95334.00;5033850;28;20033;-57
2021/08/24 11:38:58;;;;;;;4.57;2.88;;;;;;;15.72;100.00;95333.63;5032760;28;20104;-58
2021/08/24 11:41:28;;;;;;;5.90;2.80;;;;;;;15.64;100.00;95335.09;5030198;28;20026;-55
2021/08/24 11:44:25;;;;;;;3.58;2.97;;;;;;;15.87;100.00;95341.53;5013480;28;20029;-57
2021/08/24 11:47:03;;;;;;;6.47;2.50;;;;;;;15.86;100.00;95348.84;5021770;28;20033;-52
2021/08/24 11:49:36;;;;;;;4.78;2.92;;;;;;;15.99;100.00;95355.41;5032046;28;20388;-51
2021/08/24 11:52:14;;;;;;;4.43;3.20;;;;;;;16.12;100.00;95357.38;5033435;28;20052;-54
2021/08/24 11:54:56;;;;;;;3.63;2.75;;;;;;;16.14;100.00;95357.88;5031626;28;20137;-53
2021/08/24 11:57:33;;;;;;;5.05;2.72;;;;;;;16.30;100.00;95371.19;5033424;28;20025;-53